Time;durP1;ratioP1;P1;durP2;ratioP2;P2;SDS_P1;SDS_P2;PMS_P1;PMS_P2;Temp;Humidity;BMP_temperature;BMP_pressure;BME280_temperature;BME280_humidity;BME280_pressure;Samples;Min_cycle;Max_cycle;Signal;HPM_P1;HPM_P2
2022/07/05 00:02:02;;;;;;;825.72;769.75;;;18.90;99.90;;;18.35;83.30;100258.13;4977654;28;20909;-63
2022/07/05 00:04:30;;;;;;;822.03;765.42;;;;;;;18.26;84.25;100274.41;4961724;28;20233;-64
2022/07/05 00:09:57;;;;;;;806.53;750.58;;;18.30;99.90;;;18.13;86.41;100332.69;4963171;28;20233;-64
2022/07/05 00:12:31;;;;;;;814.53;757.88;;;18.20;99.90;;;18.06;87.33;100355.16;4962870;28;20212;-64
2022/07/05 00:15:01;;;;;;;800.65;744.90;;;18.20;99.90;;;18.09;88.09;100380.97;4960179;28;20677;-64
2022/07/05 00:17:29;;;;;;;803.92;748.22;;;17.90;99.90;;;17.96;88.10;100395.53;4991312;28;20208;-64
2022/07/05 00:19:57;;;;;;;801.22;745.88;;;;;;;17.84;88.67;100396.66;4975961;28;20209;-64
2022/07/05 00:22:25;;;;;;;794.30;739.85;;;17.80;99.90;;;17.97;88.74;100421.38;4940751;28;20227;-64
2022/07/05 00:24:57;;;;;;;802.40;745.22;;;17.90;99.90;;;17.77;88.29;100414.63;4943403;28;20239;-64
2022/07/05 00:27:25;;;;;;;782.70;727.75;;;;;;;17.89;87.57;100427.75;4963085;28;20209;-64
2022/07/05 00:29:53;;;;;;;783.10;727.40;;;;;;;18.09;86.06;100446.06;4942997;28;20239;-64
2022/07/05 00:32:21;;;;;;;777.90;722.90;;;;;;;18.11;84.59;100436.22;4927231;28;20218;-64
2022/07/05 00:34:50;;;;;;;777.20;722.53;;;;;;;18.14;85.22;100438.81;4959003;28;20212;-64
2022/07/05 00:37:18;;;;;;;787.20;731.38;;;17.90;99.90;;;18.10;85.05;100444.28;4962500;28;20219;-64
2022/07/05 00:39:46;;;;;;;784.47;729.08;;;;;;;17.97;84.29;100422.25;4976628;28;20241;-64
2022/07/05 00:42:15;;;;;;;781.55;726.47;;;;;;;18.11;84.56;100446.03;4959232;28;20213;-63
2022/07/05 00:44:43;;;;;;;783.83;728.28;;;17.50;99.90;;;18.02;83.43;100416.78;4977150;28;20232;-64
2022/07/05 00:47:12;;;;;;;781.92;726.17;;;18.10;99.90;;;18.14;83.52;100437.94;4975372;28;20217;-63
2022/07/05 00:49:42;;;;;;;777.50;722.72;;;17.90;99.90;;;18.17;83.63;100453.94;4989114;28;20247;-63
2022/07/05 00:52:12;;;;;;;774.83;719.40;;;17.80;99.90;;;18.09;83.75;100445.19;4930454;28;20224;-63
2022/07/05 00:54:49;;;;;;;774.10;719.45;;;;;;;18.08;84.32;100452.34;4943490;28;20207;-64
2022/07/05 00:57:21;;;;;;;764.65;710.38;;;17.90;99.90;;;18.01;84.28;100455.16;4946639;28;20850;-63
2022/07/05 00:59:51;;;;;;;774.15;719.05;;;17.80;99.90;;;18.02;84.62;100475.66;4965290;28;20240;-64
2022/07/05 01:02:19;;;;;;;769.53;715.15;;;17.90;99.90;;;18.03;85.03;100477.44;4947756;28;20196;-64
2022/07/05 01:04:49;;;;;;;772.97;717.90;;;17.80;99.90;;;17.96;85.09;100473.13;4975916;28;20229;-64
2022/07/05 01:07:21;;;;;;;768.35;714.10;;;17.70;99.90;;;18.04;84.17;100474.72;4962362;28;20228;-64
2022/07/05 01:09:49;;;;;;;765.15;711.17;;;17.50;99.90;;;18.07;83.98;100484.47;4960300;28;20228;-64
2022/07/05 01:12:18;;;;;;;765.80;711.80;;;17.80;99.90;;;18.05;84.56;100489.88;4961063;28;20216;-64
2022/07/05 01:14:46;;;;;;;769.95;715.67;;;17.80;99.90;;;17.92;84.06;100469.63;4978631;28;20247;-64
2022/07/05 01:17:16;;;;;;;771.03;716.08;;;17.80;99.90;;;17.94;83.91;100475.81;4929129;28;20213;-64
2022/07/05 01:19:44;;;;;;;757.63;703.78;;;17.70;99.90;;;17.95;84.94;100493.63;4961684;28;20232;-64
2022/07/05 01:22:20;;;;;;;757.22;703.63;;;17.90;99.90;;;17.85;85.06;100489.38;4977543;28;20239;-64
2022/07/05 01:24:51;;;;;;;765.25;710.83;;;17.70;99.90;;;17.82;84.61;100487.66;4943963;28;20907;-64
2022/07/05 01:27:20;;;;;;;776.15;720.22;;;18.00;99.90;;;17.85;85.13;100500.09;4975898;28;20284;-63
2022/07/05 01:29:48;;;;;;;767.95;713.20;;;17.70;99.90;;;17.70;86.21;100500.38;4972347;28;20232;-63
2022/07/05 01:32:17;;;;;;;763.75;709.83;;;;;;;17.67;86.42;100511.13;4965025;28;20212;-64
2022/07/05 01:34:46;;;;;;;771.70;716.30;;;;;;;17.70;86.30;100508.41;4951397;28;20216;-64
2022/07/05 01:37:15;;;;;;;755.75;702.15;;;17.50;99.90;;;17.58;86.87;100510.38;4971463;28;20208;-64
2022/07/05 01:39:44;;;;;;;748.45;695.10;;;17.40;99.90;;;17.55;87.12;100510.44;4969021;28;20233;-64
2022/07/05 01:42:12;;;;;;;763.13;708.00;;;;;;;17.80;85.47;100529.59;4950640;28;20208;-63
2022/07/05 01:44:40;;;;;;;757.83;703.95;;;17.50;99.90;;;17.74;85.15;100526.16;4943423;28;20255;-63
2022/07/05 01:47:09;;;;;;;752.05;698.40;;;;;;;17.70;84.75;100511.97;4969736;28;20204;-64
2022/07/05 01:49:46;;;;;;;764.60;709.47;;;17.50;99.90;;;17.76;84.56;100510.97;4932858;28;20236;-63
2022/07/05 01:52:14;;;;;;;752.38;698.72;;;;;;;17.75;83.92;100499.38;4953066;28;20231;-65
2022/07/05 01:54:43;;;;;;;751.80;698.00;;;17.50;99.90;;;17.83;83.27;100509.94;4951802;28;20211;-66
2022/07/05 01:57:12;;;;;;;754.05;699.42;;;17.40;99.90;;;17.83;83.13;100497.44;4976983;28;20213;-66
2022/07/05 01:59:40;;;;;;;753.25;699.22;;;17.40;99.90;;;17.84;82.01;100490.28;4959132;28;20231;-66
2022/07/05 02:02:09;;;;;;;747.75;694.78;;;17.60;99.90;;;17.83;82.19;100497.44;4964243;28;20205;-65
2022/07/05 02:04:37;;;;;;;752.60;698.47;;;17.50;99.90;;;17.89;81.47;100497.31;4989555;28;20235;-65
2022/07/05 02:07:10;;;;;;;754.13;699.22;;;17.30;99.90;;;17.85;81.40;100478.69;4961222;28;20223;-66
2022/07/05 02:09:40;;;;;;;749.67;696.05;;;17.30;99.90;;;17.92;81.90;100485.69;4948896;28;20224;-66
2022/07/05 02:12:09;;;;;;;746.28;692.50;;;17.60;99.90;;;17.84;82.13;100482.28;4932623;28;20201;-65
2022/07/05 02:14:37;;;;;;;749.65;695.20;;;17.30;99.90;;;17.82;82.15;100493.00;4978749;28;20228;-66
2022/07/05 02:17:10;;;;;;;740.00;686.58;;;;;;;17.89;82.52;100507.13;4975302;28;20223;-67
2022/07/05 02:19:40;;;;;;;740.05;686.90;;;;;;;17.82;81.43;100486.78;4936829;28;20262;-66
2022/07/05 02:22:11;;;;;;;744.47;691.15;;;;;;;17.83;81.81;100488.53;4925754;28;20227;-66
2022/07/05 02:24:39;;;;;;;746.40;691.88;;;;;;;17.80;82.32;100491.28;4965339;28;20251;-66
2022/07/05 02:27:16;;;;;;;748.33;693.50;;;17.30;99.90;;;17.75;81.80;100480.66;4951587;28;20215;-65
2022/07/05 02:29:45;;;;;;;739.47;686.10;;;;;;;17.82;82.05;100505.50;4966121;28;20232;-66
2022/07/05 02:32:14;;;;;;;748.00;693.58;;;17.30;99.90;;;17.66;82.50;100488.88;4929256;28;20213;-66
2022/07/05 02:34:42;;;;;;;727.92;674.75;;;17.40;99.90;;;17.72;81.98;100485.19;4935408;28;20216;-66
2022/07/05 02:37:23;;;;;;;741.22;687.33;;;17.40;99.90;;;17.73;82.14;100500.31;4978006;28;20208;-65
2022/07/05 02:40:04;;;;;;;731.03;677.85;;;17.30;99.90;;;17.78;81.80;100493.97;4960396;28;20208;-66
2022/07/05 02:42:38;;;;;;;740.58;685.72;;;17.40;99.90;;;17.73;82.10;100501.22;4977710;28;20207;-66
2022/07/05 02:45:07;;;;;;;738.20;684.15;;;17.50;99.90;;;17.72;81.65;100499.44;4927706;28;20707;-66
2022/07/05 02:47:36;;;;;;;731.85;677.92;;;17.30;99.90;;;17.63;82.45;100496.91;4957998;28;20215;-66
2022/07/05 02:50:07;;;;;;;737.40;684.05;;;17.30;99.90;;;17.48;84.49;100511.44;4960119;28;20231;-67
2022/07/05 02:52:39;;;;;;;730.33;677.05;;;17.30;99.90;;;17.47;83.11;100507.00;4948545;28;20200;-65
2022/07/05 02:55:08;;;;;;;745.10;690.95;;;17.10;99.90;;;17.58;83.46;100529.09;4977825;28;20224;-65
2022/07/05 02:57:39;;;;;;;734.45;681.08;;;17.30;99.90;;;17.56;83.80;100532.69;4948162;28;20223;-66
2022/07/05 03:00:11;;;;;;;738.47;684.90;;;17.30;99.90;;;17.51;83.48;100530.09;4962121;28;20217;-66
2022/07/05 03:02:43;;;;;;;740.65;686.60;;;17.20;99.90;;;17.37;83.50;100513.44;4963112;28;20223;-65
2022/07/05 03:05:12;;;;;;;743.92;690.05;;;17.30;99.90;;;17.42;84.56;100534.72;4976220;28;20278;-65
2022/07/05 03:07:44;;;;;;;729.72;676.22;;;17.20;99.90;;;17.38;83.73;100519.66;4962112;28;20223;-65
2022/07/05 03:10:13;;;;;;;733.55;680.10;;;;;;;17.43;83.98;100534.72;4961982;28;20204;-65
2022/07/05 03:12:41;;;;;;;731.85;679.10;;;;;;;17.46;84.05;100545.34;4962800;28;20212;-66
2022/07/05 03:15:12;;;;;;;730.60;677.65;;;17.00;99.90;;;17.41;84.02;100549.00;4980859;28;20204;-65
2022/07/05 03:17:42;;;;;;;734.17;680.83;;;;;;;17.45;84.38;100551.59;4942977;28;20213;-66
2022/07/05 03:20:13;;;;;;;730.42;677.00;;;;;;;17.37;83.40;100545.50;4962907;28;20241;-66
2022/07/05 03:22:42;;;;;;;751.30;696.30;;;;;;;17.19;84.19;100536.00;4958490;28;20212;-65
2022/07/05 03:25:11;;;;;;;742.30;688.47;;;;;;;17.34;84.63;100556.25;4966331;28;20232;-66
2022/07/05 03:27:40;;;;;;;721.53;668.22;;;;;;;17.30;84.58;100545.63;4930129;28;20212;-66
2022/07/05 03:30:09;;;;;;;720.65;667.50;;;17.10;99.90;;;17.31;84.39;100542.94;4962038;28;20216;-65
2022/07/05 03:32:38;;;;;;;721.40;667.70;;;17.10;99.90;;;17.26;85.24;100556.38;4944920;28;20209;-65
2022/07/05 03:35:08;;;;;;;725.70;672.35;;;;;;;17.21;85.51;100560.03;4980218;28;20216;-65
2022/07/05 03:37:37;;;;;;;712.08;659.33;;;17.00;99.90;;;17.28;85.26;100569.72;4956916;28;20205;-65
2022/07/05 03:40:06;;;;;;;711.50;658.67;;;16.90;99.90;;;17.30;84.57;100573.25;4929215;28;20208;-66
2022/07/05 03:42:35;;;;;;;710.08;658.55;;;;;;;17.19;85.27;100580.56;4973688;28;20583;-65
2022/07/05 03:45:05;;;;;;;715.03;662.88;;;17.00;99.90;;;17.30;85.09;100589.28;4960607;28;20216;-67
2022/07/05 03:47:34;;;;;;;716.17;662.88;;;16.90;99.90;;;17.17;85.36;100582.38;4970935;28;20216;-66
2022/07/05 03:50:04;;;;;;;715.10;662.90;;;17.00;99.90;;;17.13;86.13;100592.22;4974470;28;20219;-65
2022/07/05 03:52:33;;;;;;;708.90;657.00;;;;;;;17.17;86.07;100612.66;4959318;28;20216;-66
2022/07/05 03:55:01;;;;;;;716.80;664.42;;;17.00;99.90;;;17.15;85.91;100616.25;4962593;28;20216;-66
2022/07/05 03:57:29;;;;;;;714.08;661.58;;;16.90;99.90;;;17.16;86.78;100618.91;4949604;28;20231;-66
2022/07/05 03:59:59;;;;;;;715.60;663.30;;;;;;;17.21;86.55;100634.88;4983840;28;20223;-65
2022/07/05 04:02:27;;;;;;;712.05;659.33;;;;;;;17.15;86.45;100627.81;4953077;28;20212;-65
2022/07/05 04:04:56;;;;;;;703.28;650.47;;;;;;;17.15;87.14;100640.31;4957304;28;20204;-65
2022/07/05 04:07:24;;;;;;;713.47;660.78;;;;;;;17.02;89.24;100654.75;4970761;28;20224;-66
2022/07/05 04:09:52;;;;;;;719.30;664.50;;;16.80;99.90;;;16.97;89.52;100662.81;4958512;28;20229;-67
2022/07/05 04:12:21;;;;;;;702.08;649.60;;;16.60;99.90;;;17.14;88.29;100668.81;4955317;28;20208;-67
2022/07/05 04:14:49;;;;;;;707.72;654.50;;;;;;;17.11;87.59;100666.19;4939233;28;20204;-65
2022/07/05 04:17:18;;;;;;;695.35;643.25;;;16.80;99.90;;;17.00;88.63;100668.13;4970524;28;20209;-65
2022/07/05 04:19:47;;;;;;;706.47;653.53;;;;;;;17.15;88.64;100701.78;4948813;28;20225;-64
2022/07/05 04:22:15;;;;;;;700.38;648.05;;;16.60;99.90;;;16.91;90.05;100694.97;4945403;28;20218;-65
2022/07/05 04:27:31;;;;;;;697.38;645.45;;;;;;;16.48;97.67;100737.22;4966019;28;20225;-65
2022/07/05 04:30:00;;;;;;;691.38;639.38;;;16.50;99.90;;;16.45;98.00;100743.50;4958009;28;20213;-65
2022/07/05 04:32:28;;;;;;;696.65;644.67;;;16.50;99.90;;;16.54;98.39;100772.75;4952295;28;20209;-64
2022/07/05 04:34:57;;;;;;;692.17;640.83;;;;;;;16.45;98.83;100780.88;4975702;28;20208;-65
2022/07/05 04:37:25;;;;;;;700.05;647.85;;;16.40;99.90;;;16.57;98.95;100795.88;4957069;28;20231;-64
2022/07/05 04:39:53;;;;;;;688.35;637.28;;;;;;;16.60;99.17;100809.19;4957315;28;20231;-65
2022/07/05 04:42:22;;;;;;;680.70;630.17;;;;;;;16.60;98.33;100811.88;4939461;28;20212;-65
2022/07/05 04:44:50;;;;;;;695.63;643.28;;;;;;;16.83;94.97;100809.00;4940949;28;20642;-66
2022/07/05 04:47:18;;;;;;;689.38;637.15;;;;;;;16.90;94.80;100814.28;4920063;28;20235;-66
2022/07/05 04:49:47;;;;;;;691.28;639.08;;;16.50;99.90;;;16.88;95.84;100826.75;4985153;28;20236;-64
2022/07/05 04:52:15;;;;;;;690.17;638.20;;;16.80;99.90;;;16.97;97.52;100852.50;4946233;28;20220;-65
2022/07/05 04:54:43;;;;;;;696.45;643.72;;;16.70;99.90;;;17.08;96.92;100868.44;4937854;28;20597;-65
2022/07/05 04:57:11;;;;;;;688.67;636.28;;;17.00;99.90;;;17.18;96.13;100872.78;4968590;28;20213;-64
2022/07/05 04:59:39;;;;;;;698.70;645.80;;;;;;;17.27;93.97;100853.97;4937940;28;20227;-65
2022/07/05 05:02:08;;;;;;;705.22;652.28;;;17.00;99.90;;;17.39;94.64;100869.84;4981305;28;20208;-64
2022/07/05 05:04:36;;;;;;;696.85;644.72;;;;;;;17.41;96.75;100894.78;4986839;28;20209;-64
2022/07/05 05:07:05;;;;;;;699.60;646.83;;;;;;;17.47;96.64;100905.41;4954147;28;20240;-65
2022/07/05 05:09:33;;;;;;;698.78;645.88;;;17.20;99.90;;;17.59;98.01;100925.78;4941820;28;20231;-65
2022/07/05 05:12:01;;;;;;;707.92;655.40;;;;;;;17.66;96.79;100921.22;4959826;28;20217;-65
2022/07/05 05:14:29;;;;;;;707.03;654.80;;;17.40;99.90;;;17.77;95.04;100919.34;4953493;28;20219;-65
2022/07/05 05:16:57;;;;;;;711.72;658.72;;;;;;;17.92;93.62;100914.69;4945148;28;20201;-65
2022/07/05 05:19:25;;;;;;;708.83;656.28;;;17.10;99.90;;;18.00;95.07;100935.97;4943471;28;20231;-65
2022/07/05 05:21:53;;;;;;;708.92;655.60;;;;;;;18.18;96.07;100953.59;4942662;28;20204;-64
2022/07/05 05:24:21;;;;;;;710.92;659.00;;;17.80;99.90;;;18.23;94.36;100947.28;4955190;28;20204;-66
2022/07/05 05:26:50;;;;;;;719.70;666.85;;;;;;;18.42;94.83;100957.72;4958029;28;20248;-65
2022/07/05 05:29:20;;;;;;;721.70;668.60;;;17.70;99.90;;;18.43;95.25;100965.75;4998959;28;20232;-65
2022/07/05 05:31:48;;;;;;;725.85;672.78;;;18.10;99.90;;;18.61;90.97;100920.84;4956871;28;20216;-65
2022/07/05 05:34:16;;;;;;;724.85;672.17;;;18.30;99.90;;;18.76;88.87;100907.22;4938452;28;20716;-65
2022/07/05 05:36:44;;;;;;;734.95;681.90;;;18.10;99.90;;;18.88;90.28;100920.41;4953648;28;20665;-65
2022/07/05 05:39:13;;;;;;;743.30;689.97;;;18.50;99.90;;;19.07;90.45;100935.25;4985162;28;20233;-65
2022/07/05 05:41:41;;;;;;;746.60;693.13;;;;;;;19.28;91.96;100967.94;4986313;28;20215;-65
2022/07/05 05:44:09;;;;;;;761.33;706.42;;;18.50;99.90;;;19.23;92.75;100968.03;4970996;28;20695;-65
2022/07/05 05:46:37;;;;;;;763.38;709.45;;;18.60;99.90;;;19.27;91.15;100961.69;4955934;28;20225;-65
2022/07/05 05:49:06;;;;;;;772.83;718.13;;;;;;;19.37;91.39;100957.06;4938094;28;20236;-66
2022/07/05 05:51:34;;;;;;;784.30;728.58;;;;;;;19.65;89.80;100969.09;4935644;28;20200;-66
2022/07/05 05:54:02;;;;;;;776.63;722.00;;;;;;;19.84;87.29;100950.81;4969673;28;20215;-66
2022/07/05 05:56:30;;;;;;;778.70;724.05;;;;;;;19.61;84.19;100868.09;4939805;28;20208;-65
2022/07/05 05:58:58;;;;;;;788.05;733.42;;;19.00;99.90;;;19.77;82.19;100847.19;4969326;28;20264;-65
2022/07/05 06:01:27;;;;;;;795.00;740.38;;;;;;;20.04;82.69;100859.97;4955495;28;20209;-65
2022/07/05 06:03:55;;;;;;;792.13;738.17;;;;;;;20.11;82.65;100850.88;4973038;28;20212;-65
2022/07/05 06:06:23;;;;;;;798.20;744.20;;;;;;;20.42;80.11;100842.97;4971891;28;20212;-65
2022/07/05 06:08:51;;;;;;;809.88;754.38;;;19.40;99.90;;;20.41;79.93;100826.91;4952802;28;20235;-65
2022/07/05 06:11:19;;;;;;;806.85;752.20;;;19.50;99.90;;;20.37;78.06;100784.88;4959500;28;20227;-65
2022/07/05 06:13:47;;;;;;;816.22;760.63;;;20.00;99.90;;;20.48;76.79;100765.84;4939317;28;20221;-65
2022/07/05 06:16:15;;;;;;;822.22;766.85;;;20.20;99.90;;;20.68;77.88;100795.75;4953550;28;20205;-66
2022/07/05 06:18:43;;;;;;;811.35;767.45;;;20.00;99.90;;;20.78;76.38;100775.75;4959203;28;20344;-65
2022/07/05 06:21:11;;;;;;;829.95;785.05;;;20.10;99.90;;;20.86;73.51;100733.44;4988763;28;20204;-65
2022/07/05 06:23:39;;;;;;;789.17;745.20;;;20.30;99.90;;;20.79;72.82;100702.25;4987119;28;20217;-65
2022/07/05 06:26:07;;;;;;;647.90;616.30;;;20.30;99.90;;;21.05;72.58;100704.22;4972408;28;20584;-65
2022/07/05 06:28:35;;;;;;;588.13;559.80;;;20.40;99.90;;;21.11;72.07;100689.72;4987012;28;20231;-65
2022/07/05 06:31:03;;;;;;;605.30;575.85;;;20.50;99.90;;;21.22;73.46;100710.00;5004213;28;20200;-66
2022/07/05 06:33:31;;;;;;;649.10;616.97;;;20.60;99.90;;;21.21;72.36;100688.50;4972420;28;20208;-65
2022/07/05 06:35:59;;;;;;;517.40;491.73;;;20.70;99.90;;;21.38;71.36;100676.31;4972039;28;20204;-67
2022/07/05 06:38:27;;;;;;;496.67;473.85;;;20.80;99.90;;;21.31;72.63;100685.50;4939212;28;20255;-65
2022/07/05 06:40:56;;;;;;;479.52;455.83;;;20.80;99.90;;;21.47;71.44;100682.34;4972981;28;20208;-65
2022/07/05 06:43:25;;;;;;;559.63;532.20;;;20.90;99.90;;;21.61;71.62;100678.28;4985098;28;20205;-65
2022/07/05 06:46:04;;;;;;;526.40;500.67;;;21.00;99.90;;;21.61;71.26;100663.94;4985434;28;20208;-65
2022/07/05 06:48:32;;;;;;;544.47;517.17;;;21.10;99.90;;;21.66;71.11;100656.59;4969931;28;20239;-65
2022/07/05 06:51:00;;;;;;;550.83;523.45;;;21.20;99.90;;;21.66;71.49;100659.28;4945749;28;20212;-65
2022/07/05 06:53:28;;;;;;;580.05;551.13;;;21.30;99.90;;;21.92;69.94;100663.78;4974835;28;20203;-65
2022/07/05 06:55:56;;;;;;;532.20;505.35;;;21.30;99.90;;;22.24;70.69;100682.47;4953380;28;20615;-65
2022/07/05 06:58:24;;;;;;;498.88;474.17;;;21.60;99.90;;;22.30;70.61;100671.50;4967176;28;20686;-65
2022/07/05 07:00:53;;;;;;;438.58;415.17;;;21.80;99.90;;;22.24;69.89;100636.69;4957669;28;20213;-65
2022/07/05 07:03:41;;;;;;;444.52;422.73;;;21.90;99.90;;;22.25;69.89;100621.41;4967286;28;20212;-66
2022/07/05 07:06:29;;;;;;;422.20;402.23;;;21.90;99.90;;;22.44;70.36;100640.47;4954714;28;20221;-65
2022/07/05 07:11:45;;;;;;;364.15;346.20;;;22.10;99.90;;;22.74;67.83;100614.19;5005292;28;20204;-65
2022/07/05 07:14:13;;;;;;;336.65;319.27;;;22.30;99.90;;;22.70;68.98;100593.66;4959494;28;20245;-65
2022/07/05 07:16:42;;;;;;;347.95;330.30;;;22.40;99.90;;;22.86;67.68;100594.88;4959241;28;20216;-66
2022/07/05 07:19:10;;;;;;;354.50;336.85;;;22.50;99.90;;;23.17;67.27;100602.63;4977448;28;20254;-66
2022/07/05 07:21:42;;;;;;;346.80;329.33;;;22.80;99.90;;;23.11;67.30;100590.25;4961122;28;20207;-66
2022/07/05 07:24:11;;;;;;;330.45;313.70;;;22.90;99.90;;;23.17;66.55;100567.56;4944338;28;20219;-66
2022/07/05 07:29:26;;;;;;;336.80;319.08;;;23.00;99.90;;;23.63;67.29;100607.06;4960879;28;20239;-65
2022/07/05 07:31:56;;;;;;;332.77;316.20;;;23.30;99.90;;;23.94;68.26;100628.25;4979640;28;20204;-65
2022/07/05 07:34:24;;;;;;;342.05;324.42;;;23.60;99.90;;;23.65;67.29;100570.09;4949869;28;20205;-65
2022/07/05 07:36:52;;;;;;;355.25;336.83;;;23.60;99.90;;;23.97;67.98;100600.22;4973579;28;20218;-65
2022/07/05 07:39:21;;;;;;;357.58;338.90;;;23.90;99.90;;;24.13;68.28;100601.31;4977231;28;20744;-66
2022/07/05 07:41:48;;;;;;;355.65;336.83;;;24.10;99.90;;;24.31;66.83;100595.13;4973726;28;20211;-65
2022/07/05 07:44:16;;;;;;;348.73;330.00;;;24.40;99.90;;;24.24;66.09;100563.88;4998155;28;20612;-66
2022/07/05 07:46:46;;;;;;;330.02;312.30;;;24.20;99.90;;;24.54;66.89;100583.25;4976918;28;20208;-65
2022/07/05 07:49:14;;;;;;;353.05;334.08;;;24.40;99.90;;;24.28;66.82;100543.91;4937078;28;20666;-66
2022/07/05 07:51:42;;;;;;;361.67;342.75;;;24.40;99.90;;;24.30;65.75;100527.63;4965043;28;20212;-65
2022/07/05 07:54:10;;;;;;;375.55;355.40;;;24.50;99.90;;;24.43;64.39;100497.25;4941581;28;20208;-65
2022/07/05 07:56:39;;;;;;;315.67;298.65;;;24.50;99.90;;;24.48;66.09;100515.94;4959156;28;20228;-65
2022/07/05 07:59:07;;;;;;;309.90;293.15;;;24.60;99.90;;;25.47;64.82;100568.84;5003884;28;20230;-65
2022/07/05 08:01:35;;;;;;;323.27;306.27;;;25.20;99.90;;;24.76;65.09;100465.03;4940345;28;20204;-66
2022/07/05 08:04:13;;;;;;;344.15;325.55;;;25.30;99.90;;;24.69;65.16;100450.03;4972847;28;20216;-65
2022/07/05 08:06:43;;;;;;;342.73;323.85;;;25.20;99.90;;;24.93;64.87;100479.56;4939705;28;20684;-65
2022/07/05 08:09:30;;;;;;;326.65;308.58;;;25.10;99.90;;;25.52;66.23;100536.13;4982075;28;20231;-65
2022/07/05 08:11:58;;;;;;;326.02;305.92;;;25.60;99.90;;;25.52;63.95;100484.69;4975406;28;20243;-65
2022/07/05 08:14:25;;;;;;;306.30;289.30;;;26.00;99.90;;;25.44;63.23;100458.00;4961766;28;20215;-65
2022/07/05 08:16:53;;;;;;;319.10;301.85;;;25.90;99.90;;;25.71;63.77;100473.78;4989142;28;20207;-65
2022/07/05 08:22:09;;;;;;;369.80;349.23;;;25.90;99.90;;;26.23;62.56;100465.59;4975665;28;20212;-65
2022/07/05 08:24:39;;;;;;;425.60;399.30;;;26.60;99.90;;;26.20;63.38;100446.78;4977603;28;20208;-65
2022/07/05 08:27:08;;;;;;;415.00;391.50;;;26.80;99.90;;;26.04;61.43;100389.84;4962276;28;20226;-65
2022/07/05 08:29:36;;;;;;;355.35;335.27;;;26.90;99.90;;;25.95;62.18;100374.06;4992485;28;20243;-66
2022/07/05 08:32:05;;;;;;;405.35;382.40;;;26.50;99.90;;;26.11;60.21;100346.03;4942837;28;20214;-65
2022/07/05 08:34:34;;;;;;;420.33;396.83;;;26.70;99.90;;;26.20;61.72;100368.16;4989989;28;20204;-65
2022/07/05 08:37:02;;;;;;;480.00;450.38;;;26.90;99.90;;;26.07;61.06;100321.91;4951737;28;20223;-65
2022/07/05 08:39:31;;;;;;;581.25;548.75;;;26.70;99.90;;;26.09;61.22;100309.16;4941820;28;20235;-65
2022/07/05 08:42:00;;;;;;;508.75;479.00;;;26.60;99.90;;;26.41;61.72;100351.56;4970631;28;20204;-65
2022/07/05 08:44:32;;;;;;;468.38;441.40;;;26.60;99.90;;;26.23;61.06;100297.50;4967179;28;20204;-65
2022/07/05 08:47:03;;;;;;;496.52;468.05;;;26.90;99.90;;;26.29;59.78;100265.50;4962950;28;20213;-65
2022/07/05 08:49:33;;;;;;;791.28;745.03;;;26.70;99.90;;;26.60;59.88;100288.13;4963771;28;20232;-66
2022/07/05 08:52:03;;;;;;;1104.47;999.90;;;26.60;99.90;;;26.45;60.45;100268.22;4983421;28;20327;-65
2022/07/05 08:54:32;;;;;;;1106.57;999.90;;;;;;;26.85;60.98;100320.94;4975177;28;20235;-66
2022/07/05 08:57:00;;;;;;;1110.75;999.90;;;;;;;27.46;61.30;100360.72;4943067;28;20213;-65
2022/07/05 08:59:40;;;;;;;1110.65;999.90;;;;;;;26.96;60.46;100257.88;4956765;28;20641;-66
2022/07/05 09:02:13;;;;;;;1118.63;999.90;;;28.10;99.90;;;26.96;59.35;100237.06;4931208;28;20667;-65
2022/07/05 09:04:45;;;;;;;1115.07;999.90;;;27.20;99.90;;;27.02;59.82;100234.00;4954301;28;20216;-65
2022/07/05 09:07:17;;;;;;;1116.70;999.90;;;27.60;99.90;;;27.91;59.70;100327.06;4956081;28;20208;-65
2022/07/05 09:09:48;;;;;;;1123.78;999.90;;;28.10;99.90;;;28.14;58.17;100309.25;4995935;28;20232;-65
2022/07/05 09:12:17;;;;;;;1131.07;999.90;;;;;;;27.21;57.07;100143.25;4989693;28;20579;-65
2022/07/05 09:14:56;;;;;;;1125.82;999.90;;;27.80;99.90;;;27.76;58.10;100229.34;4976849;28;20212;-64
2022/07/05 09:17:26;;;;;;;1131.18;999.90;;;;;;;28.38;58.44;100282.31;4951910;28;20220;-65
2022/07/05 09:20:13;;;;;;;1136.28;999.90;;;28.60;98.20;;;28.11;56.52;100173.53;4955841;28;20261;-65
2022/07/05 09:22:53;;;;;;;1138.38;999.90;;;28.70;99.30;;;27.47;57.69;100096.28;4986689;28;20212;-64
2022/07/05 09:25:32;;;;;;;1135.47;999.90;;;27.80;99.90;;;27.97;58.71;100184.47;4961593;28;20215;-65
2022/07/05 09:28:05;;;;;;;1138.75;999.90;;;28.50;99.70;;;27.89;57.86;100135.19;4983797;28;20215;-65
2022/07/05 09:30:36;;;;;;;1146.65;999.90;;;29.30;99.90;;;29.09;56.28;100235.69;4970890;28;20200;-64
2022/07/05 09:33:10;;;;;;;1149.30;999.90;;;27.80;95.60;;;27.48;56.19;100027.41;4970449;28;20204;-64
2022/07/05 09:35:41;;;;;;;1147.93;999.90;;;29.20;99.40;;;28.77;57.50;100182.63;5001670;28;20678;-64
2022/07/05 09:38:23;;;;;;;1152.25;999.90;;;30.00;99.00;;;28.50;56.62;100131.00;4954006;28;20231;-64
2022/07/05 09:40:53;;;;;;;1160.13;999.90;;;30.70;98.80;;;28.12;56.08;100058.34;4951879;28;20204;-65
2022/07/05 09:43:27;;;;;;;1161.05;999.90;;;30.40;93.30;;;27.50;56.24;100003.75;4962965;28;20210;-64
2022/07/05 09:45:59;;;;;;;1164.97;999.90;;;29.60;93.80;;;27.31;56.80;99976.09;4949221;28;20199;-64
2022/07/05 09:48:32;;;;;;;1167.57;999.90;;;29.10;93.00;;;27.01;57.05;99950.00;4961600;28;20243;-64
2022/07/05 09:51:12;;;;;;;1165.60;999.90;;;28.90;92.90;;;27.49;57.44;100004.72;4964020;28;20664;-64
2022/07/05 09:54:01;;;;;;;1163.40;999.90;;;29.50;94.60;;;28.35;57.20;100093.00;4953192;28;20203;-65
2022/07/05 09:56:47;;;;;;;1168.50;999.90;;;29.80;95.80;;;28.41;54.67;100061.78;4974302;28;20207;-64
2022/07/05 09:59:20;;;;;;;1177.10;999.90;;;29.60;90.20;;;27.88;53.18;99926.91;5000633;28;20231;-65
2022/07/05 10:01:51;;;;;;;1168.20;999.90;;;29.90;92.20;;;28.97;54.10;100056.91;4964931;28;20228;-65
2022/07/05 10:04:19;;;;;;;1174.55;999.90;;;30.30;92.30;;;29.43;53.77;100070.72;4972973;28;20219;-65
2022/07/05 10:06:48;;;;;;;1175.18;999.90;;;;;;;29.38;54.77;100055.69;4988023;28;20672;-65
2022/07/05 10:09:17;;;;;;;1173.68;999.90;;;;;;;29.20;53.96;100022.53;4944267;28;20223;-66
2022/07/05 10:11:46;;;;;;;1183.00;999.90;;;30.20;90.60;;;28.64;55.60;99952.22;4977624;28;20204;-65
2022/07/05 10:14:18;;;;;;;1177.90;999.90;;;29.90;89.70;;;28.47;54.42;99911.75;4970154;28;20200;-64
2022/07/05 10:17:00;;;;;;;1172.38;999.90;;;30.00;89.30;;;28.77;55.49;99957.63;4980217;28;20200;-64
2022/07/05 10:19:38;;;;;;;1176.80;999.90;;;30.40;92.20;;;29.95;53.63;100055.88;4970570;28;20588;-65
2022/07/05 10:22:07;;;;;;;1177.10;999.90;;;31.50;90.70;;;29.91;51.55;99995.28;4962980;28;20207;-65
2022/07/05 10:24:54;;;;;;;1184.75;999.90;;;31.30;86.30;;;28.87;53.93;99858.00;4951665;28;20203;-65
2022/07/05 10:27:25;;;;;;;1184.18;999.90;;;;;;;28.48;52.77;99810.13;4982396;28;20208;-65
2022/07/05 10:29:55;;;;;;;1191.63;999.90;;;30.30;90.30;;;28.81;55.88;99912.00;4976806;28;20234;-65